sensor_id;sensor_type;location;lat;lon;timestamp;P1;durP1;ratioP1;P2;durP2;ratioP2
19163;SDS011;9714;51.208;4.242;2022-07-22T00:02:27;16.47;;;3.83;;
19163;SDS011;9714;51.208;4.242;2022-07-22T00:04:54;22.83;;;3.83;;
19163;SDS011;9714;51.208;4.242;2022-07-22T00:07:21;28.33;;;4.37;;
19163;SDS011;9714;51.208;4.242;2022-07-22T00:09:48;12.50;;;3.23;;
19163;SDS011;9714;51.208;4.242;2022-07-22T00:12:15;16.00;;;3.40;;
19163;SDS011;9714;51.208;4.242;2022-07-22T00:14:42;15.20;;;3.40;;
19163;SDS011;9714;51.208;4.242;2022-07-22T00:17:09;19.23;;;3.90;;
19163;SDS011;9714;51.208;4.242;2022-07-22T00:19:37;21.93;;;3.47;;
19163;SDS011;9714;51.208;4.242;2022-07-22T00:22:04;19.57;;;3.77;;
19163;SDS011;9714;51.208;4.242;2022-07-22T00:24:31;13.37;;;3.73;;
19163;SDS011;9714;51.208;4.242;2022-07-22T00:26:58;17.10;;;3.57;;
19163;SDS011;9714;51.208;4.242;2022-07-22T00:29:25;14.70;;;3.70;;
19163;SDS011;9714;51.208;4.242;2022-07-22T00:31:52;14.27;;;3.70;;
19163;SDS011;9714;51.208;4.242;2022-07-22T00:34:19;13.43;;;4.03;;
19163;SDS011;9714;51.208;4.242;2022-07-22T00:36:48;21.70;;;4.63;;
19163;SDS011;9714;51.208;4.242;2022-07-22T00:39:15;16.33;;;4.20;;
19163;SDS011;9714;51.208;4.242;2022-07-22T00:41:42;18.97;;;4.17;;
19163;SDS011;9714;51.208;4.242;2022-07-22T00:44:09;16.10;;;4.00;;
19163;SDS011;9714;51.208;4.242;2022-07-22T00:46:36;18.00;;;4.03;;
19163;SDS011;9714;51.208;4.242;2022-07-22T00:49:04;17.60;;;3.70;;
19163;SDS011;9714;51.208;4.242;2022-07-22T00:51:33;15.70;;;4.27;;
19163;SDS011;9714;51.208;4.242;2022-07-22T00:54:03;17.67;;;4.80;;
19163;SDS011;9714;51.208;4.242;2022-07-22T00:56:30;17.37;;;4.03;;
19163;SDS011;9714;51.208;4.242;2022-07-22T00:58:58;12.47;;;3.83;;
19163;SDS011;9714;51.208;4.242;2022-07-22T01:01:26;20.23;;;4.70;;
19163;SDS011;9714;51.208;4.242;2022-07-22T01:03:54;21.97;;;4.47;;
19163;SDS011;9714;51.208;4.242;2022-07-22T01:06:21;21.10;;;5.30;;
19163;SDS011;9714;51.208;4.242;2022-07-22T01:08:49;14.80;;;4.10;;
19163;SDS011;9714;51.208;4.242;2022-07-22T01:11:18;14.67;;;4.27;;
19163;SDS011;9714;51.208;4.242;2022-07-22T01:13:46;17.83;;;4.93;;
19163;SDS011;9714;51.208;4.242;2022-07-22T01:16:14;16.77;;;5.00;;
19163;SDS011;9714;51.208;4.242;2022-07-22T01:18:42;14.77;;;4.40;;
19163;SDS011;9714;51.208;4.242;2022-07-22T01:21:13;19.60;;;4.93;;
19163;SDS011;9714;51.208;4.242;2022-07-22T01:23:42;17.43;;;5.10;;
19163;SDS011;9714;51.208;4.242;2022-07-22T01:26:09;16.73;;;4.93;;
19163;SDS011;9714;51.208;4.242;2022-07-22T01:28:36;15.57;;;4.37;;
19163;SDS011;9714;51.208;4.242;2022-07-22T01:31:04;17.87;;;4.73;;
19163;SDS011;9714;51.208;4.242;2022-07-22T01:33:32;18.03;;;5.07;;
19163;SDS011;9714;51.208;4.242;2022-07-22T01:36:00;14.30;;;4.80;;
19163;SDS011;9714;51.208;4.242;2022-07-22T01:38:28;18.77;;;5.80;;
19163;SDS011;9714;51.208;4.242;2022-07-22T01:40:55;14.17;;;4.63;;
19163;SDS011;9714;51.208;4.242;2022-07-22T01:43:22;18.07;;;5.73;;
19163;SDS011;9714;51.208;4.242;2022-07-22T01:45:50;20.60;;;5.43;;
19163;SDS011;9714;51.208;4.242;2022-07-22T01:48:18;18.97;;;5.03;;
19163;SDS011;9714;51.208;4.242;2022-07-22T01:50:47;22.07;;;5.17;;
19163;SDS011;9714;51.208;4.242;2022-07-22T01:53:14;18.93;;;4.77;;
19163;SDS011;9714;51.208;4.242;2022-07-22T01:55:42;20.40;;;6.20;;
19163;SDS011;9714;51.208;4.242;2022-07-22T01:58:10;16.70;;;5.10;;
19163;SDS011;9714;51.208;4.242;2022-07-22T02:00:38;17.43;;;5.30;;
19163;SDS011;9714;51.208;4.242;2022-07-22T02:03:06;19.23;;;5.23;;
19163;SDS011;9714;51.208;4.242;2022-07-22T02:05:32;16.37;;;5.23;;
19163;SDS011;9714;51.208;4.242;2022-07-22T02:08:00;17.97;;;5.70;;
19163;SDS011;9714;51.208;4.242;2022-07-22T02:10:28;13.20;;;5.07;;
19163;SDS011;9714;51.208;4.242;2022-07-22T02:12:56;17.93;;;5.67;;
19163;SDS011;9714;51.208;4.242;2022-07-22T02:15:24;16.27;;;5.70;;
19163;SDS011;9714;51.208;4.242;2022-07-22T02:17:51;16.60;;;5.17;;
19163;SDS011;9714;51.208;4.242;2022-07-22T02:20:19;19.23;;;5.47;;
19163;SDS011;9714;51.208;4.242;2022-07-22T02:22:46;14.67;;;5.53;;
19163;SDS011;9714;51.208;4.242;2022-07-22T02:25:13;18.60;;;5.37;;
19163;SDS011;9714;51.208;4.242;2022-07-22T02:27:40;16.20;;;5.30;;
19163;SDS011;9714;51.208;4.242;2022-07-22T02:30:09;23.93;;;5.33;;
19163;SDS011;9714;51.208;4.242;2022-07-22T02:32:37;16.93;;;5.77;;
19163;SDS011;9714;51.208;4.242;2022-07-22T02:35:04;20.90;;;5.27;;
19163;SDS011;9714;51.208;4.242;2022-07-22T02:37:32;18.60;;;6.57;;
19163;SDS011;9714;51.208;4.242;2022-07-22T02:39:59;19.63;;;6.13;;
19163;SDS011;9714;51.208;4.242;2022-07-22T02:42:26;20.77;;;5.93;;
19163;SDS011;9714;51.208;4.242;2022-07-22T02:44:53;14.67;;;5.70;;
19163;SDS011;9714;51.208;4.242;2022-07-22T02:47:22;17.17;;;6.03;;
19163;SDS011;9714;51.208;4.242;2022-07-22T02:49:49;17.30;;;5.47;;
19163;SDS011;9714;51.208;4.242;2022-07-22T02:52:17;17.33;;;5.60;;
19163;SDS011;9714;51.208;4.242;2022-07-22T02:54:44;17.07;;;5.97;;
19163;SDS011;9714;51.208;4.242;2022-07-22T02:57:11;19.80;;;5.97;;
19163;SDS011;9714;51.208;4.242;2022-07-22T02:59:38;17.07;;;6.20;;
19163;SDS011;9714;51.208;4.242;2022-07-22T03:02:05;21.70;;;6.47;;
19163;SDS011;9714;51.208;4.242;2022-07-22T03:04:33;15.30;;;5.37;;
19163;SDS011;9714;51.208;4.242;2022-07-22T03:07:01;18.63;;;6.60;;
19163;SDS011;9714;51.208;4.242;2022-07-22T03:09:28;23.23;;;6.90;;
19163;SDS011;9714;51.208;4.242;2022-07-22T03:11:55;16.60;;;6.50;;
19163;SDS011;9714;51.208;4.242;2022-07-22T03:14:22;20.87;;;6.20;;
19163;SDS011;9714;51.208;4.242;2022-07-22T03:16:49;18.60;;;6.73;;
19163;SDS011;9714;51.208;4.242;2022-07-22T03:19:16;14.60;;;6.33;;
19163;SDS011;9714;51.208;4.242;2022-07-22T03:21:44;21.73;;;6.87;;
19163;SDS011;9714;51.208;4.242;2022-07-22T03:24:11;19.00;;;7.47;;
19163;SDS011;9714;51.208;4.242;2022-07-22T03:26:38;20.97;;;7.07;;
19163;SDS011;9714;51.208;4.242;2022-07-22T03:29:05;19.47;;;6.50;;
19163;SDS011;9714;51.208;4.242;2022-07-22T03:31:32;17.57;;;6.43;;
19163;SDS011;9714;51.208;4.242;2022-07-22T03:33:59;17.93;;;5.93;;
19163;SDS011;9714;51.208;4.242;2022-07-22T03:36:26;14.30;;;6.10;;
19163;SDS011;9714;51.208;4.242;2022-07-22T03:38:55;17.20;;;6.60;;
19163;SDS011;9714;51.208;4.242;2022-07-22T03:41:22;19.20;;;6.63;;
19163;SDS011;9714;51.208;4.242;2022-07-22T03:43:49;18.40;;;6.40;;
19163;SDS011;9714;51.208;4.242;2022-07-22T03:46:16;18.07;;;5.80;;
19163;SDS011;9714;51.208;4.242;2022-07-22T03:48:43;25.53;;;6.00;;
19163;SDS011;9714;51.208;4.242;2022-07-22T03:51:10;17.23;;;6.20;;
19163;SDS011;9714;51.208;4.242;2022-07-22T03:53:37;13.53;;;6.17;;
19163;SDS011;9714;51.208;4.242;2022-07-22T03:56:06;20.93;;;6.63;;
19163;SDS011;9714;51.208;4.242;2022-07-22T03:58:33;19.17;;;6.43;;
19163;SDS011;9714;51.208;4.242;2022-07-22T04:01:00;13.60;;;5.60;;
19163;SDS011;9714;51.208;4.242;2022-07-22T04:03:27;15.10;;;6.37;;
19163;SDS011;9714;51.208;4.242;2022-07-22T04:05:54;24.07;;;6.73;;
19163;SDS011;9714;51.208;4.242;2022-07-22T04:08:21;17.07;;;6.30;;
19163;SDS011;9714;51.208;4.242;2022-07-22T04:10:48;20.33;;;6.27;;
19163;SDS011;9714;51.208;4.242;2022-07-22T04:13:16;18.27;;;6.07;;
19163;SDS011;9714;51.208;4.242;2022-07-22T04:15:43;18.80;;;6.47;;
19163;SDS011;9714;51.208;4.242;2022-07-22T04:18:10;18.57;;;7.93;;
19163;SDS011;9714;51.208;4.242;2022-07-22T04:20:37;22.33;;;7.40;;
19163;SDS011;9714;51.208;4.242;2022-07-22T04:23:04;21.47;;;7.10;;
19163;SDS011;9714;51.208;4.242;2022-07-22T04:25:31;24.93;;;6.07;;
19163;SDS011;9714;51.208;4.242;2022-07-22T04:27:58;15.03;;;5.80;;
19163;SDS011;9714;51.208;4.242;2022-07-22T04:30:27;14.70;;;5.60;;
19163;SDS011;9714;51.208;4.242;2022-07-22T04:32:54;14.00;;;5.37;;
19163;SDS011;9714;51.208;4.242;2022-07-22T04:35:21;18.63;;;5.93;;
19163;SDS011;9714;51.208;4.242;2022-07-22T04:37:48;15.67;;;6.00;;
19163;SDS011;9714;51.208;4.242;2022-07-22T04:40:15;17.87;;;6.10;;
19163;SDS011;9714;51.208;4.242;2022-07-22T04:42:42;19.00;;;5.97;;
19163;SDS011;9714;51.208;4.242;2022-07-22T04:45:10;18.33;;;6.33;;
19163;SDS011;9714;51.208;4.242;2022-07-22T04:47:38;14.57;;;6.57;;
19163;SDS011;9714;51.208;4.242;2022-07-22T04:50:05;16.63;;;6.13;;
19163;SDS011;9714;51.208;4.242;2022-07-22T04:52:33;18.70;;;6.97;;
19163;SDS011;9714;51.208;4.242;2022-07-22T04:55:00;20.77;;;6.00;;
19163;SDS011;9714;51.208;4.242;2022-07-22T04:57:27;14.37;;;6.47;;
19163;SDS011;9714;51.208;4.242;2022-07-22T04:59:54;16.10;;;5.77;;
19163;SDS011;9714;51.208;4.242;2022-07-22T05:02:21;17.73;;;6.00;;
19163;SDS011;9714;51.208;4.242;2022-07-22T05:04:50;17.37;;;6.13;;
19163;SDS011;9714;51.208;4.242;2022-07-22T05:07:17;18.70;;;6.67;;
19163;SDS011;9714;51.208;4.242;2022-07-22T05:09:44;16.47;;;5.97;;
19163;SDS011;9714;51.208;4.242;2022-07-22T05:12:11;13.77;;;5.83;;
19163;SDS011;9714;51.208;4.242;2022-07-22T05:14:37;16.90;;;6.70;;
19163;SDS011;9714;51.208;4.242;2022-07-22T05:17:08;15.13;;;6.37;;
19163;SDS011;9714;51.208;4.242;2022-07-22T05:19:37;19.23;;;6.70;;
19163;SDS011;9714;51.208;4.242;2022-07-22T05:22:05;19.33;;;6.53;;
19163;SDS011;9714;51.208;4.242;2022-07-22T05:24:32;14.27;;;6.43;;
19163;SDS011;9714;51.208;4.242;2022-07-22T05:26:59;16.93;;;6.90;;
19163;SDS011;9714;51.208;4.242;2022-07-22T05:29:27;14.70;;;6.37;;
19163;SDS011;9714;51.208;4.242;2022-07-22T05:31:54;18.77;;;6.70;;
19163;SDS011;9714;51.208;4.242;2022-07-22T05:34:21;21.37;;;6.90;;
19163;SDS011;9714;51.208;4.242;2022-07-22T05:36:48;20.10;;;7.30;;
19163;SDS011;9714;51.208;4.242;2022-07-22T05:39:16;25.80;;;6.87;;
19163;SDS011;9714;51.208;4.242;2022-07-22T05:41:43;21.17;;;7.20;;
19163;SDS011;9714;51.208;4.242;2022-07-22T05:44:10;17.53;;;6.70;;
19163;SDS011;9714;51.208;4.242;2022-07-22T05:46:37;22.10;;;7.23;;
19163;SDS011;9714;51.208;4.242;2022-07-22T05:49:04;18.30;;;5.97;;
19163;SDS011;9714;51.208;4.242;2022-07-22T05:51:32;18.93;;;7.03;;
19163;SDS011;9714;51.208;4.242;2022-07-22T05:54:00;24.40;;;6.47;;
19163;SDS011;9714;51.208;4.242;2022-07-22T05:56:30;17.97;;;6.70;;
19163;SDS011;9714;51.208;4.242;2022-07-22T05:58:58;18.70;;;6.97;;
19163;SDS011;9714;51.208;4.242;2022-07-22T06:01:25;15.83;;;6.50;;
19163;SDS011;9714;51.208;4.242;2022-07-22T06:03:52;18.10;;;7.20;;
19163;SDS011;9714;51.208;4.242;2022-07-22T06:06:19;18.40;;;7.10;;
19163;SDS011;9714;51.208;4.242;2022-07-22T06:08:47;17.30;;;7.20;;
19163;SDS011;9714;51.208;4.242;2022-07-22T06:11:14;24.50;;;7.57;;
19163;SDS011;9714;51.208;4.242;2022-07-22T06:13:44;21.30;;;6.47;;
19163;SDS011;9714;51.208;4.242;2022-07-22T06:16:11;20.87;;;7.37;;
19163;SDS011;9714;51.208;4.242;2022-07-22T06:18:38;25.97;;;7.27;;
19163;SDS011;9714;51.208;4.242;2022-07-22T06:21:05;24.13;;;7.63;;
19163;SDS011;9714;51.208;4.242;2022-07-22T06:23:33;17.57;;;6.90;;
19163;SDS011;9714;51.208;4.242;2022-07-22T06:26:00;21.73;;;7.17;;
19163;SDS011;9714;51.208;4.242;2022-07-22T06:28:27;18.40;;;7.07;;
19163;SDS011;9714;51.208;4.242;2022-07-22T06:30:55;18.20;;;7.90;;
19163;SDS011;9714;51.208;4.242;2022-07-22T06:33:22;20.93;;;7.40;;
19163;SDS011;9714;51.208;4.242;2022-07-22T06:35:49;19.03;;;7.40;;
19163;SDS011;9714;51.208;4.242;2022-07-22T06:38:17;23.33;;;7.13;;
19163;SDS011;9714;51.208;4.242;2022-07-22T06:40:44;14.67;;;6.07;;
19163;SDS011;9714;51.208;4.242;2022-07-22T06:43:11;18.67;;;7.10;;
19163;SDS011;9714;51.208;4.242;2022-07-22T06:45:38;19.63;;;6.43;;
19163;SDS011;9714;51.208;4.242;2022-07-22T06:48:06;19.87;;;7.10;;
19163;SDS011;9714;51.208;4.242;2022-07-22T06:50:33;23.30;;;7.20;;
19163;SDS011;9714;51.208;4.242;2022-07-22T06:53:01;21.40;;;6.67;;
19163;SDS011;9714;51.208;4.242;2022-07-22T06:55:28;17.43;;;6.73;;
19163;SDS011;9714;51.208;4.242;2022-07-22T06:57:55;22.13;;;6.20;;
19163;SDS011;9714;51.208;4.242;2022-07-22T07:00:22;19.27;;;6.70;;
19163;SDS011;9714;51.208;4.242;2022-07-22T07:02:48;17.45;;;6.03;;
19163;SDS011;9714;51.208;4.242;2022-07-22T07:05:17;16.70;;;5.67;;
19163;SDS011;9714;51.208;4.242;2022-07-22T07:07:44;20.92;;;5.88;;
19163;SDS011;9714;51.208;4.242;2022-07-22T07:10:12;15.83;;;5.60;;
19163;SDS011;9714;51.208;4.242;2022-07-22T07:12:40;16.92;;;5.13;;
19163;SDS011;9714;51.208;4.242;2022-07-22T07:15:07;17.52;;;5.40;;
19163;SDS011;9714;51.208;4.242;2022-07-22T07:17:35;14.35;;;4.93;;
19163;SDS011;9714;51.208;4.242;2022-07-22T07:20:03;16.48;;;4.70;;
19163;SDS011;9714;51.208;4.242;2022-07-22T07:22:33;13.40;;;4.38;;
19163;SDS011;9714;51.208;4.242;2022-07-22T07:25:01;14.07;;;3.90;;
19163;SDS011;9714;51.208;4.242;2022-07-22T07:27:30;14.77;;;3.90;;
19163;SDS011;9714;51.208;4.242;2022-07-22T07:29:57;15.75;;;4.22;;
19163;SDS011;9714;51.208;4.242;2022-07-22T07:32:24;13.90;;;4.03;;
19163;SDS011;9714;51.208;4.242;2022-07-22T07:34:51;11.38;;;3.53;;
19163;SDS011;9714;51.208;4.242;2022-07-22T07:37:18;13.90;;;3.35;;
19163;SDS011;9714;51.208;4.242;2022-07-22T07:39:47;17.73;;;4.30;;
19163;SDS011;9714;51.208;4.242;2022-07-22T07:42:14;13.73;;;2.78;;
19163;SDS011;9714;51.208;4.242;2022-07-22T07:44:41;9.68;;;3.22;;
19163;SDS011;9714;51.208;4.242;2022-07-22T07:47:09;14.68;;;3.13;;
19163;SDS011;9714;51.208;4.242;2022-07-22T07:49:37;14.60;;;2.72;;
19163;SDS011;9714;51.208;4.242;2022-07-22T07:52:04;12.32;;;2.65;;
19163;SDS011;9714;51.208;4.242;2022-07-22T07:54:32;10.55;;;2.40;;
19163;SDS011;9714;51.208;4.242;2022-07-22T07:57:01;12.70;;;2.35;;
19163;SDS011;9714;51.208;4.242;2022-07-22T07:59:28;14.30;;;7.05;;
19163;SDS011;9714;51.208;4.242;2022-07-22T08:01:56;11.20;;;2.00;;
19163;SDS011;9714;51.208;4.242;2022-07-22T08:04:23;13.48;;;2.33;;
19163;SDS011;9714;51.208;4.242;2022-07-22T08:06:50;11.50;;;2.28;;
19163;SDS011;9714;51.208;4.242;2022-07-22T08:09:17;13.32;;;2.22;;
19163;SDS011;9714;51.208;4.242;2022-07-22T08:11:44;12.75;;;2.53;;
19163;SDS011;9714;51.208;4.242;2022-07-22T08:14:13;9.90;;;2.00;;
19163;SDS011;9714;51.208;4.242;2022-07-22T08:16:40;9.32;;;2.40;;
19163;SDS011;9714;51.208;4.242;2022-07-22T08:19:08;14.85;;;2.60;;
19163;SDS011;9714;51.208;4.242;2022-07-22T08:21:35;10.32;;;2.22;;
19163;SDS011;9714;51.208;4.242;2022-07-22T08:24:03;14.93;;;2.72;;
19163;SDS011;9714;51.208;4.242;2022-07-22T08:26:30;14.85;;;2.45;;
19163;SDS011;9714;51.208;4.242;2022-07-22T08:28:57;12.32;;;2.20;;
19163;SDS011;9714;51.208;4.242;2022-07-22T08:31:25;9.52;;;2.13;;
19163;SDS011;9714;51.208;4.242;2022-07-22T08:33:53;12.63;;;2.13;;
19163;SDS011;9714;51.208;4.242;2022-07-22T08:36:20;10.88;;;2.53;;
19163;SDS011;9714;51.208;4.242;2022-07-22T08:38:47;10.10;;;1.83;;
19163;SDS011;9714;51.208;4.242;2022-07-22T08:41:14;10.15;;;2.40;;
19163;SDS011;9714;51.208;4.242;2022-07-22T08:43:42;12.00;;;2.25;;
19163;SDS011;9714;51.208;4.242;2022-07-22T08:46:09;14.65;;;2.13;;
19163;SDS011;9714;51.208;4.242;2022-07-22T08:48:38;9.63;;;1.83;;
19163;SDS011;9714;51.208;4.242;2022-07-22T08:51:06;12.85;;;2.30;;
19163;SDS011;9714;51.208;4.242;2022-07-22T08:53:33;12.60;;;2.15;;
19163;SDS011;9714;51.208;4.242;2022-07-22T08:56:00;9.38;;;2.30;;
19163;SDS011;9714;51.208;4.242;2022-07-22T08:58:27;11.27;;;2.30;;
19163;SDS011;9714;51.208;4.242;2022-07-22T09:01:06;10.55;;;2.03;;
19163;SDS011;9714;51.208;4.242;2022-07-22T09:03:35;12.02;;;2.53;;
19163;SDS011;9714;51.208;4.242;2022-07-22T09:06:12;13.45;;;2.33;;
19163;SDS011;9714;51.208;4.242;2022-07-22T09:08:54;12.35;;;2.03;;
19163;SDS011;9714;51.208;4.242;2022-07-22T09:11:23;8.23;;;1.85;;
19163;SDS011;9714;51.208;4.242;2022-07-22T09:13:50;10.23;;;2.30;;
19163;SDS011;9714;51.208;4.242;2022-07-22T09:19:08;12.10;;;2.53;;
19163;SDS011;9714;51.208;4.242;2022-07-22T09:21:36;8.85;;;1.90;;
19163;SDS011;9714;51.208;4.242;2022-07-22T09:24:05;12.98;;;2.47;;
19163;SDS011;9714;51.208;4.242;2022-07-22T09:26:34;10.10;;;2.17;;
19163;SDS011;9714;51.208;4.242;2022-07-22T09:29:03;9.35;;;2.42;;
19163;SDS011;9714;51.208;4.242;2022-07-22T09:31:31;8.63;;;2.60;;
19163;SDS011;9714;51.208;4.242;2022-07-22T09:34:01;8.60;;;2.05;;
19163;SDS011;9714;51.208;4.242;2022-07-22T09:36:31;12.50;;;2.50;;
19163;SDS011;9714;51.208;4.242;2022-07-22T09:38:58;11.05;;;2.28;;
19163;SDS011;9714;51.208;4.242;2022-07-22T09:41:25;8.43;;;2.40;;
19163;SDS011;9714;51.208;4.242;2022-07-22T09:43:52;13.27;;;2.63;;
19163;SDS011;9714;51.208;4.242;2022-07-22T09:46:32;13.60;;;2.47;;
19163;SDS011;9714;51.208;4.242;2022-07-22T09:49:02;13.63;;;2.53;;
19163;SDS011;9714;51.208;4.242;2022-07-22T09:51:30;13.02;;;2.70;;
19163;SDS011;9714;51.208;4.242;2022-07-22T09:53:59;10.30;;;2.15;;
19163;SDS011;9714;51.208;4.242;2022-07-22T09:56:27;12.05;;;2.83;;
19163;SDS011;9714;51.208;4.242;2022-07-22T09:59:00;12.23;;;2.28;;
19163;SDS011;9714;51.208;4.242;2022-07-22T10:01:27;10.05;;;2.20;;
19163;SDS011;9714;51.208;4.242;2022-07-22T10:03:55;9.98;;;2.70;;
19163;SDS011;9714;51.208;4.242;2022-07-22T10:06:22;8.65;;;2.67;;
19163;SDS011;9714;51.208;4.242;2022-07-22T10:08:50;11.82;;;2.95;;
19163;SDS011;9714;51.208;4.242;2022-07-22T10:11:17;10.10;;;3.00;;
19163;SDS011;9714;51.208;4.242;2022-07-22T10:13:45;9.75;;;2.80;;
19163;SDS011;9714;51.208;4.242;2022-07-22T10:16:13;11.38;;;3.05;;
19163;SDS011;9714;51.208;4.242;2022-07-22T10:18:43;12.60;;;3.08;;
19163;SDS011;9714;51.208;4.242;2022-07-22T10:21:12;8.95;;;2.60;;
19163;SDS011;9714;51.208;4.242;2022-07-22T10:26:47;14.73;;;3.33;;
19163;SDS011;9714;51.208;4.242;2022-07-22T10:29:28;11.82;;;3.67;;
19163;SDS011;9714;51.208;4.242;2022-07-22T10:37:59;9.63;;;3.03;;
19163;SDS011;9714;51.208;4.242;2022-07-22T10:40:47;11.68;;;3.33;;
19163;SDS011;9714;51.208;4.242;2022-07-22T10:43:20;12.98;;;3.20;;
19163;SDS011;9714;51.208;4.242;2022-07-22T10:45:50;10.95;;;2.83;;
19163;SDS011;9714;51.208;4.242;2022-07-22T10:48:20;8.25;;;2.78;;
19163;SDS011;9714;51.208;4.242;2022-07-22T10:50:49;12.20;;;2.70;;
19163;SDS011;9714;51.208;4.242;2022-07-22T10:53:25;13.88;;;3.28;;
19163;SDS011;9714;51.208;4.242;2022-07-22T10:56:21;9.77;;;2.97;;
19163;SDS011;9714;51.208;4.242;2022-07-22T11:01:38;11.10;;;3.20;;
19163;SDS011;9714;51.208;4.242;2022-07-22T11:04:11;12.98;;;3.53;;
19163;SDS011;9714;51.208;4.242;2022-07-22T11:06:40;13.80;;;4.30;;
19163;SDS011;9714;51.208;4.242;2022-07-22T11:09:09;13.15;;;3.97;;
19163;SDS011;9714;51.208;4.242;2022-07-22T11:11:40;11.98;;;3.80;;
19163;SDS011;9714;51.208;4.242;2022-07-22T11:14:15;16.38;;;3.90;;
19163;SDS011;9714;51.208;4.242;2022-07-22T11:16:45;12.05;;;3.05;;
19163;SDS011;9714;51.208;4.242;2022-07-22T11:19:13;9.75;;;2.92;;
19163;SDS011;9714;51.208;4.242;2022-07-22T11:21:40;12.68;;;3.22;;
19163;SDS011;9714;51.208;4.242;2022-07-22T11:24:09;12.45;;;3.00;;
19163;SDS011;9714;51.208;4.242;2022-07-22T11:26:38;14.63;;;3.08;;
19163;SDS011;9714;51.208;4.242;2022-07-22T11:29:09;9.52;;;2.60;;
19163;SDS011;9714;51.208;4.242;2022-07-22T11:31:38;12.40;;;4.00;;
19163;SDS011;9714;51.208;4.242;2022-07-22T11:34:05;10.45;;;3.40;;
19163;SDS011;9714;51.208;4.242;2022-07-22T11:36:35;13.52;;;3.20;;
19163;SDS011;9714;51.208;4.242;2022-07-22T11:39:03;10.15;;;3.22;;
19163;SDS011;9714;51.208;4.242;2022-07-22T11:41:31;9.32;;;3.03;;
19163;SDS011;9714;51.208;4.242;2022-07-22T11:43:59;11.63;;;3.30;;
19163;SDS011;9714;51.208;4.242;2022-07-22T11:46:27;12.52;;;4.03;;
19163;SDS011;9714;51.208;4.242;2022-07-22T11:49:03;14.13;;;4.22;;
19163;SDS011;9714;51.208;4.242;2022-07-22T11:51:31;13.48;;;3.88;;
19163;SDS011;9714;51.208;4.242;2022-07-22T11:54:01;10.93;;;3.50;;
19163;SDS011;9714;51.208;4.242;2022-07-22T11:56:28;11.38;;;3.40;;
19163;SDS011;9714;51.208;4.242;2022-07-22T11:58:56;10.82;;;3.50;;
19163;SDS011;9714;51.208;4.242;2022-07-22T12:01:26;11.70;;;3.10;;
19163;SDS011;9714;51.208;4.242;2022-07-22T12:03:56;9.40;;;3.78;;
19163;SDS011;9714;51.208;4.242;2022-07-22T12:06:26;13.02;;;4.30;;
19163;SDS011;9714;51.208;4.242;2022-07-22T12:08:54;11.93;;;4.43;;
19163;SDS011;9714;51.208;4.242;2022-07-22T12:11:27;11.13;;;4.18;;
19163;SDS011;9714;51.208;4.242;2022-07-22T12:13:55;12.02;;;4.07;;
19163;SDS011;9714;51.208;4.242;2022-07-22T12:16:31;12.45;;;4.60;;
19163;SDS011;9714;51.208;4.242;2022-07-22T12:18:59;13.82;;;4.05;;
19163;SDS011;9714;51.208;4.242;2022-07-22T12:21:27;10.90;;;3.88;;
19163;SDS011;9714;51.208;4.242;2022-07-22T12:23:56;12.18;;;3.78;;
19163;SDS011;9714;51.208;4.242;2022-07-22T12:26:36;10.55;;;3.42;;
19163;SDS011;9714;51.208;4.242;2022-07-22T12:29:18;11.65;;;3.47;;
19163;SDS011;9714;51.208;4.242;2022-07-22T12:31:51;12.60;;;3.25;;
19163;SDS011;9714;51.208;4.242;2022-07-22T12:34:29;11.43;;;3.90;;
19163;SDS011;9714;51.208;4.242;2022-07-22T12:37:07;12.85;;;3.60;;
19163;SDS011;9714;51.208;4.242;2022-07-22T12:39:38;16.02;;;4.35;;
19163;SDS011;9714;51.208;4.242;2022-07-22T12:42:15;12.55;;;4.18;;
19163;SDS011;9714;51.208;4.242;2022-07-22T12:44:49;15.18;;;4.57;;
19163;SDS011;9714;51.208;4.242;2022-07-22T12:47:22;13.23;;;3.95;;
19163;SDS011;9714;51.208;4.242;2022-07-22T12:52:52;14.85;;;4.30;;
19163;SDS011;9714;51.208;4.242;2022-07-22T12:55:20;10.40;;;3.28;;
19163;SDS011;9714;51.208;4.242;2022-07-22T12:57:48;10.77;;;3.92;;
19163;SDS011;9714;51.208;4.242;2022-07-22T13:00:18;13.60;;;4.07;;
19163;SDS011;9714;51.208;4.242;2022-07-22T13:02:47;12.40;;;4.18;;
19163;SDS011;9714;51.208;4.242;2022-07-22T13:05:14;11.00;;;3.80;;
19163;SDS011;9714;51.208;4.242;2022-07-22T13:07:42;10.65;;;3.90;;
19163;SDS011;9714;51.208;4.242;2022-07-22T13:10:09;15.60;;;4.85;;
19163;SDS011;9714;51.208;4.242;2022-07-22T13:12:37;11.90;;;3.90;;
19163;SDS011;9714;51.208;4.242;2022-07-22T13:15:05;12.95;;;4.15;;
19163;SDS011;9714;51.208;4.242;2022-07-22T13:17:33;14.15;;;4.10;;
19163;SDS011;9714;51.208;4.242;2022-07-22T13:20:02;10.73;;;4.03;;
19163;SDS011;9714;51.208;4.242;2022-07-22T13:22:30;9.38;;;3.88;;
19163;SDS011;9714;51.208;4.242;2022-07-22T13:24:59;13.40;;;5.07;;
19163;SDS011;9714;51.208;4.242;2022-07-22T13:27:26;11.20;;;4.22;;
19163;SDS011;9714;51.208;4.242;2022-07-22T13:29:53;11.02;;;4.30;;
19163;SDS011;9714;51.208;4.242;2022-07-22T13:32:20;10.20;;;4.05;;
19163;SDS011;9714;51.208;4.242;2022-07-22T13:34:46;13.48;;;4.80;;
19163;SDS011;9714;51.208;4.242;2022-07-22T13:37:15;10.38;;;3.63;;
19163;SDS011;9714;51.208;4.242;2022-07-22T13:39:42;10.85;;;3.95;;
19163;SDS011;9714;51.208;4.242;2022-07-22T13:42:11;12.90;;;4.63;;
19163;SDS011;9714;51.208;4.242;2022-07-22T13:44:40;12.02;;;4.53;;
19163;SDS011;9714;51.208;4.242;2022-07-22T13:47:07;12.07;;;4.35;;
19163;SDS011;9714;51.208;4.242;2022-07-22T13:49:34;11.60;;;3.88;;
19163;SDS011;9714;51.208;4.242;2022-07-22T13:52:01;9.43;;;4.05;;
19163;SDS011;9714;51.208;4.242;2022-07-22T13:54:30;12.45;;;4.07;;
19163;SDS011;9714;51.208;4.242;2022-07-22T13:56:58;12.60;;;4.38;;
19163;SDS011;9714;51.208;4.242;2022-07-22T13:59:27;10.63;;;4.03;;
19163;SDS011;9714;51.208;4.242;2022-07-22T14:01:56;14.27;;;4.70;;
19163;SDS011;9714;51.208;4.242;2022-07-22T14:04:25;12.48;;;4.43;;
19163;SDS011;9714;51.208;4.242;2022-07-22T14:06:52;13.45;;;4.93;;
19163;SDS011;9714;51.208;4.242;2022-07-22T14:09:19;16.20;;;5.43;;
19163;SDS011;9714;51.208;4.242;2022-07-22T14:11:47;12.20;;;4.50;;
19163;SDS011;9714;51.208;4.242;2022-07-22T14:14:14;15.52;;;4.80;;
19163;SDS011;9714;51.208;4.242;2022-07-22T14:16:41;13.23;;;4.70;;
19163;SDS011;9714;51.208;4.242;2022-07-22T14:19:09;16.45;;;4.32;;
19163;SDS011;9714;51.208;4.242;2022-07-22T14:21:37;11.90;;;4.22;;
19163;SDS011;9714;51.208;4.242;2022-07-22T14:24:06;17.25;;;4.60;;
19163;SDS011;9714;51.208;4.242;2022-07-22T14:26:35;13.93;;;4.65;;
19163;SDS011;9714;51.208;4.242;2022-07-22T14:29:04;10.23;;;4.40;;
19163;SDS011;9714;51.208;4.242;2022-07-22T14:31:32;11.10;;;4.32;;
19163;SDS011;9714;51.208;4.242;2022-07-22T14:33:59;17.45;;;4.78;;
19163;SDS011;9714;51.208;4.242;2022-07-22T14:36:26;12.80;;;5.18;;
19163;SDS011;9714;51.208;4.242;2022-07-22T14:38:54;11.90;;;4.95;;
19163;SDS011;9714;51.208;4.242;2022-07-22T14:41:21;10.23;;;4.35;;
19163;SDS011;9714;51.208;4.242;2022-07-22T14:43:49;15.73;;;5.35;;
19163;SDS011;9714;51.208;4.242;2022-07-22T14:46:17;10.77;;;4.90;;
19163;SDS011;9714;51.208;4.242;2022-07-22T14:48:45;14.00;;;5.40;;
19163;SDS011;9714;51.208;4.242;2022-07-22T14:51:17;12.18;;;5.40;;
19163;SDS011;9714;51.208;4.242;2022-07-22T14:53:44;14.45;;;5.18;;
19163;SDS011;9714;51.208;4.242;2022-07-22T14:56:11;12.88;;;4.88;;
19163;SDS011;9714;51.208;4.242;2022-07-22T14:58:38;11.82;;;4.28;;
19163;SDS011;9714;51.208;4.242;2022-07-22T15:01:05;11.52;;;4.35;;
19163;SDS011;9714;51.208;4.242;2022-07-22T15:03:34;13.13;;;5.15;;
19163;SDS011;9714;51.208;4.242;2022-07-22T15:06:01;11.63;;;4.60;;
19163;SDS011;9714;51.208;4.242;2022-07-22T15:08:28;11.63;;;5.32;;
19163;SDS011;9714;51.208;4.242;2022-07-22T15:10:55;12.00;;;5.38;;
19163;SDS011;9714;51.208;4.242;2022-07-22T15:13:23;12.85;;;4.85;;